Time;durP1;ratioP1;P1;durP2;ratioP2;P2;SDS_P1;SDS_P2;PMS_P1;PMS_P2;Temp;Humidity;BMP_temperature;BMP_pressure;BME280_temperature;BME280_humidity;BME280_pressure;Samples;Min_cycle;Max_cycle;Signal;HPM_P1;HPM_P2
2023/07/23 00:00:06;;;;;;;8.67;6.73;;;;;;;18.31;68.11;100447.75;687955;28;1041;-79
2023/07/23 00:00:34;;;;;;;9.90;7.20;;;;;;;18.34;68.20;100450.34;685172;28;1053;-78
2023/07/23 00:00:55;;;;;;;10.57;7.40;;;;;;;18.34;68.17;100455.63;680014;29;1054;-78
2023/07/23 00:01:16;;;;;;;10.67;7.40;;;;;;;18.38;68.26;100460.91;685382;28;1090;-78
2023/07/23 00:01:36;;;;;;;11.63;7.53;;;;;;;18.33;68.05;100448.59;690646;28;925;-77
2023/07/23 00:01:57;;;;;;;12.00;7.55;;;;;;;18.33;68.05;100451.25;690540;28;1180;-78
2023/07/23 00:02:17;;;;;;;12.17;7.50;;;;;;;18.30;68.09;100451.28;680382;28;1099;-78
2023/07/23 00:02:38;;;;;;;11.65;7.30;;;;;;;18.30;68.05;100442.47;680199;29;1228;-78
2023/07/23 00:02:59;;;;;;;11.17;6.90;;;;;;;18.29;68.05;100443.38;682690;29;938;-78
2023/07/23 00:03:19;;;;;;;10.83;6.80;;;;;;;18.33;67.74;100455.69;679983;29;1113;-78
2023/07/23 00:03:40;;;;;;;10.40;6.75;;;;;;;18.30;67.92;100451.28;690410;28;1104;-78
2023/07/23 00:04:01;;;;;;;11.57;6.90;;;;;;;18.31;67.92;100450.41;683229;28;1331;-78
2023/07/23 00:04:21;;;;;;;11.70;6.90;;;;;;;18.25;67.99;100446.94;682496;28;1275;-78
2023/07/23 00:04:42;;;;;;;13.48;7.22;;;;;;;18.25;67.88;100445.16;680198;28;1425;-78
2023/07/23 00:05:02;;;;;;;12.50;7.47;;;;;;;18.26;67.85;100457.47;680110;29;1100;-78
2023/07/23 00:05:24;;;;;;;12.73;7.60;;;;;;;18.30;68.17;100458.31;682423;28;1132;-78
2023/07/23 00:05:45;;;;;;;10.43;7.10;;;;;;;18.26;68.02;100446.91;680884;28;1212;-78
2023/07/23 00:06:05;;;;;;;10.40;7.10;;;;;;;18.20;68.14;100441.72;682604;28;1111;-78
2023/07/23 00:06:26;;;;;;;12.25;7.47;;;;;;;18.19;68.12;100456.66;682504;28;1186;-78
2023/07/23 00:06:47;;;;;;;13.30;8.00;;;;;;;18.18;68.21;100444.34;685531;28;953;-78
2023/07/23 00:07:08;;;;;;;12.33;7.60;;;;;;;18.23;68.02;100452.22;685233;28;1037;-78
2023/07/23 00:07:30;;;;;;;10.48;7.35;;;;;;;18.22;68.02;100461.06;681896;28;1074;-78
2023/07/23 00:07:54;;;;;;;9.10;6.78;;;;;;;18.13;67.99;100450.53;680115;29;919;-78
2023/07/23 00:08:14;;;;;;;10.55;6.80;;;;;;;18.15;68.09;100456.72;685278;28;950;-78
2023/07/23 00:08:35;;;;;;;11.50;7.30;;;;;;;18.12;67.96;100448.78;687830;28;1242;-78
2023/07/23 00:08:56;;;;;;;12.23;7.38;;;;;;;18.12;67.96;100446.16;685284;28;1017;-78
2023/07/23 00:09:16;;;;;;;11.60;7.35;;;;;;;18.19;68.08;100455.81;685227;28;1290;-78
2023/07/23 00:09:37;;;;;;;12.53;6.80;;;;;;;18.13;68.25;100445.25;682467;29;1081;-78
2023/07/23 00:09:58;;;;;;;11.85;6.78;;;;;;;18.11;68.09;100449.66;685343;28;915;-78
2023/07/23 00:10:18;;;;;;;13.13;6.67;;;;;;;18.15;68.13;100454.06;685279;28;1080;-78
2023/07/23 00:10:39;;;;;;;11.85;6.97;;;;;;;18.08;68.26;100438.22;685560;28;1005;-78
2023/07/23 00:11:00;;;;;;;11.30;7.22;;;;;;;18.23;68.12;100454.88;687474;28;1157;-78
2023/07/23 00:11:20;;;;;;;11.05;7.40;;;;;;;18.16;68.07;100447.88;685195;28;1112;-78
2023/07/23 00:11:41;;;;;;;10.63;7.10;;;;;;;18.20;67.97;100452.28;677526;29;1119;-78
2023/07/23 00:12:02;;;;;;;9.95;6.60;;;;;;;18.12;67.94;100438.22;686162;28;1310;-78
2023/07/23 00:12:23;;;;;;;11.48;6.85;;;;;;;18.17;67.78;100447.88;685290;28;1127;-78
2023/07/23 00:12:44;;;;;;;12.88;7.30;;;;;;;18.17;67.78;100447.00;682821;29;1072;-78
2023/07/23 00:13:05;;;;;;;15.00;7.78;;;;;;;18.21;67.80;100443.47;682908;28;1294;-78
2023/07/23 00:13:26;;;;;;;13.52;7.68;;;;;;;18.22;67.95;100453.13;682451;28;1349;-77
2023/07/23 00:13:46;;;;;;;11.80;7.15;;;;;;;18.17;67.95;100439.06;682087;28;923;-78
2023/07/23 00:14:08;;;;;;;9.87;6.93;;;;;;;18.21;67.92;100448.75;687983;28;1249;-78
2023/07/23 00:14:29;;;;;;;9.27;6.60;;;;;;;18.22;67.89;100453.13;686564;28;972;-79
2023/07/23 00:14:49;;;;;;;8.43;6.40;;;;;;;18.22;67.81;100450.50;682777;28;1076;-78
2023/07/23 00:15:12;;;;;;;8.30;6.60;;;;;;;18.18;67.98;100446.09;680303;28;1302;-77
2023/07/23 00:15:33;;;;;;;9.15;6.68;;;;;;;18.22;67.75;100443.41;679545;29;1114;-77
2023/07/23 00:15:54;;;;;;;11.02;6.70;;;;;;;18.20;67.82;100447.00;685219;28;1215;-78
2023/07/23 00:16:14;;;;;;;11.73;6.70;;;;;;;18.16;67.69;100446.13;682096;29;1290;-78
2023/07/23 00:16:35;;;;;;;13.30;6.97;;;;;;;18.15;67.75;100443.50;685160;28;1289;-78
2023/07/23 00:16:56;;;;;;;12.40;6.82;;;;;;;18.13;67.74;100439.97;687120;28;1209;-78
2023/07/23 00:17:16;;;;;;;11.95;6.68;;;;;;;18.15;67.74;100446.16;683111;28;1975;-77
2023/07/23 00:17:37;;;;;;;8.57;6.35;;;;;;;18.12;67.75;100438.22;685172;28;1195;-78
2023/07/23 00:17:58;;;;;;;9.00;6.60;;;;;;;18.19;67.72;100461.94;687939;28;1166;-78
2023/07/23 00:18:18;;;;;;;8.75;6.60;;;;;;;18.11;67.68;100441.72;685098;28;1149;-78
2023/07/23 00:18:39;;;;;;;9.40;6.82;;;;;;;18.08;67.67;100434.75;682506;29;946;-78
2023/07/23 00:19:00;;;;;;;9.13;6.65;;;;;;;18.08;67.47;100448.78;680046;29;1029;-77
2023/07/23 00:19:20;;;;;;;10.37;7.07;;;;;;;18.06;67.63;100440.03;679374;29;1200;-78
2023/07/23 00:19:41;;;;;;;11.20;7.10;;;;;;;18.04;67.79;100441.81;685375;28;1121;-77
2023/07/23 00:20:04;;;;;;;10.70;7.00;;;;;;;18.14;67.78;100454.94;680028;29;1016;-77
2023/07/23 00:20:25;;;;;;;9.70;6.65;;;;;;;18.05;67.87;100440.91;682493;28;994;-77
2023/07/23 00:20:47;;;;;;;9.35;6.35;;;;;;;18.12;67.89;100452.28;680207;29;839;-77
2023/07/23 00:21:08;;;;;;;10.90;6.75;;;;;;;18.12;67.72;100449.66;674665;29;1375;-78
2023/07/23 00:21:28;;;;;;;10.25;6.65;;;;;;;18.11;67.95;100457.56;679662;29;1364;-78
2023/07/23 00:21:49;;;;;;;10.10;6.45;;;;;;;18.05;67.62;100433.00;682499;28;1399;-79
2023/07/23 00:22:10;;;;;;;10.93;6.53;;;;;;;18.05;67.68;100433.00;685075;28;1216;-77
2023/07/23 00:22:31;;;;;;;11.55;6.63;;;;;;;18.11;67.77;100449.66;683254;28;1271;-77
2023/07/23 00:22:51;;;;;;;10.90;6.60;;;;;;;18.12;67.74;100448.78;685268;28;1414;-77
2023/07/23 00:23:12;;;;;;;9.00;6.38;;;;;;;18.05;67.79;100437.38;679827;29;1110;-77
2023/07/23 00:23:32;;;;;;;9.07;6.07;;;;;;;18.05;67.69;100442.66;682521;29;1164;-78
2023/07/23 00:23:53;;;;;;;9.10;6.10;;;;;;;18.11;67.71;100447.00;687932;28;989;-78
2023/07/23 00:24:15;;;;;;;10.60;6.47;;;;;;;18.05;67.64;100446.19;677909;28;1063;-77
2023/07/23 00:24:36;;;;;;;10.27;6.65;;;;;;;18.03;67.71;100429.50;680054;29;1266;-77
2023/07/23 00:24:57;;;;;;;11.15;6.80;;;;;;;18.04;67.77;100438.28;685699;28;1271;-78
2023/07/23 00:25:18;;;;;;;9.80;6.65;;;;;;;18.06;67.76;100434.75;687840;28;1230;-78
2023/07/23 00:25:39;;;;;;;9.45;6.60;;;;;;;18.07;67.81;100438.28;687264;28;1416;-78
2023/07/23 00:25:59;;;;;;;9.43;6.30;;;;;;;18.02;67.78;100432.16;685272;28;911;-77
2023/07/23 00:26:20;;;;;;;10.00;6.30;;;;;;;18.01;67.99;100436.53;685144;28;1170;-77
2023/07/23 00:26:41;;;;;;;11.40;6.53;;;;;;;18.04;67.84;100433.88;685169;28;1335;-78
2023/07/23 00:27:01;;;;;;;10.55;6.65;;;;;;;18.03;67.83;100434.78;685053;28;1076;-78
2023/07/23 00:27:23;;;;;;;10.43;6.70;;;;;;;17.98;68.03;100426.00;679921;29;991;-78
2023/07/23 00:27:44;;;;;;;9.32;6.40;;;;;;;17.99;67.90;100425.13;685201;28;1387;-78
2023/07/23 00:28:06;;;;;;;10.02;6.50;;;;;;;18.00;67.99;100436.56;682590;29;1163;-78
2023/07/23 00:28:27;;;;;;;9.40;6.43;;;;;;;18.07;68.13;100449.69;682358;29;1114;-77
2023/07/23 00:28:47;;;;;;;8.55;6.43;;;;;;;17.99;67.79;100426.88;682733;29;923;-78
2023/07/23 00:29:08;;;;;;;8.70;6.60;;;;;;;17.99;68.05;100432.16;679896;29;1114;-78
2023/07/23 00:29:29;;;;;;;8.25;6.10;;;;;;;18.05;67.85;100442.66;680343;28;1541;-78
2023/07/23 00:29:50;;;;;;;8.43;5.88;;;;;;;18.03;67.99;100433.91;679965;29;983;-78
2023/07/23 00:30:11;;;;;;;7.90;5.80;;;;;;;17.98;68.02;100427.75;679805;29;1187;-78
2023/07/23 00:30:33;;;;;;;9.85;6.38;;;;;;;18.03;67.92;100436.53;685153;28;1244;-78
2023/07/23 00:30:54;;;;;;;11.05;6.82;;;;;;;17.95;68.04;100431.31;685048;28;1169;-78
2023/07/23 00:31:15;;;;;;;10.77;6.97;;;;;;;17.99;68.03;100443.59;687995;28;1341;-78
2023/07/23 00:31:36;;;;;;;9.13;6.90;;;;;;;17.92;68.12;100426.06;687698;28;1137;-78
2023/07/23 00:31:57;;;;;;;8.38;6.55;;;;;;;17.93;68.12;100433.97;687928;28;1534;-78
2023/07/23 00:32:17;;;;;;;8.60;6.40;;;;;;;17.90;68.16;100426.06;685002;28;1207;-77
2023/07/23 00:32:38;;;;;;;9.40;6.33;;;;;;;17.88;68.38;100429.63;687721;28;1154;-78
2023/07/23 00:32:59;;;;;;;9.33;6.27;;;;;;;17.89;68.33;100426.09;685649;28;1393;-78
2023/07/23 00:33:23;;;;;;;9.25;6.25;;;;;;;17.93;68.45;100433.09;685124;28;1167;-79
2023/07/23 00:33:44;;;;;;;8.63;6.40;;;;;;;17.90;68.54;100433.13;685216;28;1501;-78
2023/07/23 00:34:06;;;;;;;8.50;6.30;;;;;;;17.92;68.73;100439.25;685127;28;1091;-78
2023/07/23 00:34:27;;;;;;;8.75;5.75;;;;;;;17.90;68.57;100422.56;679818;29;1062;-77
2023/07/23 00:34:48;;;;;;;9.20;5.88;;;;;;;17.95;68.84;100431.31;679983;29;1033;-78
2023/07/23 00:35:09;;;;;;;10.43;6.37;;;;;;;17.89;68.88;100431.38;682364;28;1040;-78
2023/07/23 00:35:30;;;;;;;11.45;6.72;;;;;;;17.87;68.91;100422.56;679631;29;1038;-77
2023/07/23 00:35:50;;;;;;;11.20;6.47;;;;;;;17.87;68.96;100427.84;684512;28;1169;-78
2023/07/23 00:36:11;;;;;;;8.77;6.20;;;;;;;17.85;68.79;100419.06;685096;28;1079;-78
2023/07/23 00:36:32;;;;;;;8.55;6.22;;;;;;;17.91;69.27;100426.94;685203;28;1000;-78
2023/07/23 00:36:53;;;;;;;9.20;6.40;;;;;;;17.88;68.91;100419.06;687869;28;1364;-77
2023/07/23 00:37:14;;;;;;;11.85;6.43;;;;;;;17.89;68.96;100418.19;687913;28;1928;-78
2023/07/23 00:37:34;;;;;;;12.00;6.60;;;;;;;17.88;69.18;100411.16;685334;28;1451;-78
2023/07/23 00:37:55;;;;;;;12.80;6.70;;;;;;;17.92;68.89;100423.41;682715;29;989;-79
2023/07/23 00:38:16;;;;;;;11.60;6.55;;;;;;;17.88;69.05;100416.44;684797;28;1408;-78
2023/07/23 00:38:36;;;;;;;12.70;6.37;;;;;;;17.88;69.01;100414.66;685297;28;1007;-78
2023/07/23 00:38:57;;;;;;;11.80;6.30;;;;;;;17.91;68.86;100419.91;685258;28;950;-78
2023/07/23 00:39:18;;;;;;;10.27;6.50;;;;;;;17.91;69.10;100414.63;687820;28;1208;-77
2023/07/23 00:39:39;;;;;;;8.77;6.50;;;;;;;17.92;69.10;100410.22;687838;28;1043;-78
2023/07/23 00:40:00;;;;;;;8.68;6.30;;;;;;;17.89;69.03;100407.63;687880;28;916;-78
2023/07/23 00:40:20;;;;;;;8.70;6.10;;;;;;;17.85;68.99;100396.22;682948;28;1098;-78
2023/07/23 00:40:42;;;;;;;9.15;6.35;;;;;;;17.93;69.05;100418.13;680593;28;1220;-78
2023/07/23 00:41:02;;;;;;;9.90;6.80;;;;;;;17.89;69.02;100405.84;684962;28;1112;-78
2023/07/23 00:41:27;;;;;;;10.30;7.23;;;;;;;17.94;68.96;100413.72;687951;28;1303;-78
2023/07/23 00:41:49;;;;;;;12.90;6.85;;;;;;;17.92;69.01;100410.22;687985;28;930;-77
2023/07/23 00:42:09;;;;;;;11.98;6.40;;;;;;;17.86;69.28;100404.97;687738;28;1204;-78
2023/07/23 00:42:30;;;;;;;11.85;6.35;;;;;;;17.89;68.81;100407.63;682468;28;969;-78
2023/07/23 00:42:51;;;;;;;8.30;6.00;;;;;;;17.86;69.07;100404.97;685209;28;1258;-78
2023/07/23 00:43:12;;;;;;;8.57;6.20;;;;;;;17.85;69.22;100413.78;686902;28;1185;-78
2023/07/23 00:43:33;;;;;;;8.98;6.28;;;;;;;17.85;69.01;100411.16;682597;29;1032;-78
2023/07/23 00:43:54;;;;;;;9.73;7.00;;;;;;;17.80;69.12;100396.25;682654;28;1242;-78
2023/07/23 00:44:16;;;;;;;10.43;7.25;;;;;;;17.91;69.04;100421.66;682378;28;1201;-77
2023/07/23 00:44:36;;;;;;;11.85;7.40;;;;;;;17.87;69.14;100398.81;685083;28;1359;-77
2023/07/23 00:44:57;;;;;;;12.20;7.20;;;;;;;17.87;68.87;100397.06;687905;28;1248;-78
2023/07/23 00:45:19;;;;;;;12.00;6.80;;;;;;;17.81;69.17;100402.38;690582;28;990;-77
2023/07/23 00:45:40;;;;;;;10.27;6.35;;;;;;;17.88;68.92;100406.72;689194;28;1013;-78
2023/07/23 00:46:01;;;;;;;10.38;6.30;;;;;;;17.89;69.13;100404.97;687726;28;1276;-78
2023/07/23 00:46:22;;;;;;;10.77;6.40;;;;;;;17.91;69.15;100405.84;679799;28;1147;-78
2023/07/23 00:46:43;;;;;;;11.65;6.90;;;;;;;17.84;69.14;100390.94;682562;28;1200;-78
2023/07/23 00:47:05;;;;;;;11.73;6.88;;;;;;;17.88;69.16;100403.22;685076;28;1464;-78
2023/07/23 00:47:26;;;;;;;11.85;6.88;;;;;;;17.89;68.71;100403.19;687715;28;1092;-78
2023/07/23 00:47:47;;;;;;;10.90;6.75;;;;;;;17.92;68.95;100404.94;688181;28;776;-78
2023/07/23 00:48:08;;;;;;;9.57;6.72;;;;;;;17.85;68.86;100388.28;685193;28;978;-78
2023/07/23 00:48:29;;;;;;;8.55;6.32;;;;;;;17.87;68.77;100396.16;684550;28;1189;-79
2023/07/23 00:48:49;;;;;;;9.40;6.18;;;;;;;17.85;68.70;100395.31;685153;28;986;-77
2023/07/23 00:49:11;;;;;;;10.73;6.10;;;;;;;17.85;68.71;100387.41;685052;28;1081;-78
2023/07/23 00:49:32;;;;;;;11.75;6.30;;;;;;;17.90;68.77;100397.03;683111;28;1041;-78
2023/07/23 00:49:53;;;;;;;11.20;6.55;;;;;;;17.84;68.69;100390.94;687804;28;1108;-78
2023/07/23 00:50:14;;;;;;;9.23;6.55;;;;;;;17.86;68.57;100389.16;688403;28;1127;-78
2023/07/23 00:50:35;;;;;;;8.25;6.22;;;;;;;17.86;68.58;100381.22;687866;28;1072;-78
2023/07/23 00:50:56;;;;;;;8.55;6.15;;;;;;;17.87;68.59;100391.78;683167;28;1263;-78
2023/07/23 00:51:17;;;;;;;12.45;6.45;;;;;;;17.83;68.59;100383.91;682537;29;1185;-77
2023/07/23 00:51:38;;;;;;;11.88;6.75;;;;;;;17.80;68.77;100385.69;685487;28;1202;-78
2023/07/23 00:51:59;;;;;;;11.05;6.72;;;;;;;17.80;68.61;100383.06;682619;28;1149;-78
2023/07/23 00:52:20;;;;;;;10.27;6.45;;;;;;;17.87;68.39;100398.81;682344;28;1368;-77
2023/07/23 00:52:42;;;;;;;10.67;6.50;;;;;;;17.80;68.41;100385.69;684411;28;1113;-77
2023/07/23 00:53:03;;;;;;;10.40;6.40;;;;;;;17.84;68.22;100383.00;687624;28;1344;-77
2023/07/23 00:53:25;;;;;;;9.40;6.25;;;;;;;17.87;68.43;100385.63;687695;28;1173;-77
2023/07/23 00:53:48;;;;;;;9.85;6.38;;;;;;;17.86;68.45;100389.16;688067;28;878;-78
2023/07/23 00:54:09;;;;;;;9.77;6.53;;;;;;;17.87;68.64;100390.91;685126;28;1106;-77
2023/07/23 00:54:30;;;;;;;9.35;6.78;;;;;;;17.82;68.38;100383.00;688271;28;1364;-77
2023/07/23 00:54:51;;;;;;;8.85;6.60;;;;;;;17.80;68.17;100380.41;687916;28;1541;-77
2023/07/23 00:55:12;;;;;;;9.97;6.50;;;;;;;17.75;68.22;100370.75;684920;28;1170;-78
2023/07/23 00:55:32;;;;;;;9.50;6.20;;;;;;;17.81;68.34;100382.16;685197;28;1413;-78
2023/07/23 00:55:54;;;;;;;10.07;6.17;;;;;;;17.78;68.06;100382.16;687630;28;1251;-77
2023/07/23 00:56:16;;;;;;;9.95;6.57;;;;;;;17.80;68.14;100380.41;687052;28;1192;-77
2023/07/23 00:56:37;;;;;;;11.15;6.30;;;;;;;17.77;68.53;100364.59;687717;28;1369;-77
2023/07/23 00:57:00;;;;;;;9.80;6.05;;;;;;;17.79;68.27;100381.31;687816;28;944;-77
2023/07/23 00:57:21;;;;;;;10.98;6.00;;;;;;;17.83;68.21;100383.91;690282;28;1911;-77
2023/07/23 00:57:43;;;;;;;12.00;6.30;;;;;;;17.76;68.24;100369.91;687768;28;1159;-77
2023/07/23 00:58:04;;;;;;;12.67;6.90;;;;;;;17.75;68.35;100370.75;685074;28;1355;-77
2023/07/23 00:58:25;;;;;;;13.23;7.23;;;;;;;17.76;68.14;100373.41;682187;28;1323;-78
2023/07/23 00:58:47;;;;;;;10.88;6.80;;;;;;;17.77;68.29;100376.94;687951;28;806;-77
2023/07/23 00:59:08;;;;;;;10.52;6.45;;;;;;;17.78;68.35;100371.59;685030;28;1239;-77
2023/07/23 00:59:32;;;;;;;10.13;6.10;;;;;;;17.71;68.16;100363.78;683253;28;1033;-77
2023/07/23 00:59:56;;;;;;;12.18;6.80;;;;;;;17.75;68.25;100366.38;682346;29;1947;-78
2023/07/23 01:00:17;;;;;;;15.30;7.05;;;;;;;17.75;68.18;100366.38;687743;28;1192;-78
2023/07/23 01:00:37;;;;;;;13.05;6.68;;;;;;;17.74;68.16;100364.63;685759;28;1207;-78
2023/07/23 01:00:58;;;;;;;12.37;6.17;;;;;;;17.79;68.39;100368.13;685145;28;1355;-77
2023/07/23 01:01:19;;;;;;;8.70;6.05;;;;;;;17.75;68.29;100361.09;679638;29;1316;-77
2023/07/23 01:01:40;;;;;;;9.30;6.30;;;;;;;17.74;68.04;100356.72;687943;28;1788;-78
2023/07/23 01:02:02;;;;;;;8.48;6.13;;;;;;;17.72;68.05;100353.22;687870;28;1508;-77
2023/07/23 01:02:25;;;;;;;8.88;6.50;;;;;;;17.80;67.99;100359.31;682481;28;1213;-77
2023/07/23 01:02:47;;;;;;;10.52;6.57;;;;;;;17.81;67.92;100361.03;685349;28;961;-78
2023/07/23 01:03:07;;;;;;;10.80;6.88;;;;;;;17.78;67.95;100368.97;685160;28;1417;-77
2023/07/23 01:03:28;;;;;;;10.35;6.90;;;;;;;17.80;67.89;100364.56;684986;28;1173;-78
2023/07/23 01:03:51;;;;;;;9.57;7.00;;;;;;;17.68;67.83;100349.72;680018;29;1331;-77
2023/07/23 01:04:11;;;;;;;9.40;6.55;;;;;;;17.76;67.90;100361.97;680248;28;1360;-78
2023/07/23 01:04:34;;;;;;;8.98;6.13;;;;;;;17.72;67.81;100353.22;687799;28;1385;-77
2023/07/23 01:04:55;;;;;;;8.63;6.10;;;;;;;17.77;67.77;100361.94;685161;28;1440;-78
2023/07/23 01:05:17;;;;;;;9.25;6.20;;;;;;;17.75;67.71;100355.81;687763;28;1265;-77
2023/07/23 01:05:41;;;;;;;9.35;6.47;;;;;;;17.73;67.71;100359.34;679115;28;1489;-77
2023/07/23 01:06:04;;;;;;;8.85;6.30;;;;;;;17.74;67.71;100350.53;681495;29;1130;-78
2023/07/23 01:06:27;;;;;;;9.30;5.97;;;;;;;17.76;67.64;100356.69;684457;28;1091;-77
2023/07/23 01:06:49;;;;;;;9.27;6.07;;;;;;;17.72;67.76;100350.56;687845;28;910;-77
2023/07/23 01:07:10;;;;;;;8.10;6.10;;;;;;;17.79;67.60;100362.84;684937;28;1016;-78
2023/07/23 01:07:32;;;;;;;9.25;6.43;;;;;;;17.76;67.63;100354.91;684999;28;1280;-78
2023/07/23 01:07:55;;;;;;;11.68;6.60;;;;;;;17.79;67.77;100357.56;679721;29;1201;-77
2023/07/23 01:08:16;;;;;;;13.25;6.78;;;;;;;17.76;67.55;100346.16;685012;28;1219;-78
2023/07/23 01:08:41;;;;;;;12.60;6.75;;;;;;;17.74;67.57;100347.91;683084;28;1300;-77
2023/07/23 01:09:03;;;;;;;10.85;6.85;;;;;;;17.81;67.70;100357.53;684926;28;1011;-77
2023/07/23 01:09:25;;;;;;;10.90;6.95;;;;;;;17.79;67.67;100347.00;679575;28;1793;-77
2023/07/23 01:09:49;;;;;;;11.18;6.80;;;;;;;17.76;67.72;100347.00;682696;28;1581;-78
2023/07/23 01:10:10;;;;;;;10.20;6.60;;;;;;;17.76;67.48;100347.00;690330;28;1211;-76
2023/07/23 01:10:32;;;;;;;9.95;6.82;;;;;;;17.80;67.44;100350.50;693037;28;1000;-77
2023/07/23 01:10:53;;;;;;;9.50;7.07;;;;;;;17.76;67.62;100349.66;687704;28;1332;-78
2023/07/23 01:11:14;;;;;;;9.45;6.93;;;;;;;17.81;67.48;100361.03;687896;28;1055;-77
2023/07/23 01:11:35;;;;;;;9.57;6.40;;;;;;;17.80;67.24;100356.66;682471;28;989;-77
2023/07/23 01:11:57;;;;;;;9.27;6.15;;;;;;;17.77;67.14;100356.66;677209;29;1402;-77
2023/07/23 01:12:19;;;;;;;8.52;5.63;;;;;;;17.83;67.40;100357.50;684963;28;1265;-77
2023/07/23 01:12:41;;;;;;;8.38;6.13;;;;;;;17.84;67.36;100356.63;687784;28;941;-78
2023/07/23 01:13:02;;;;;;;9.73;6.47;;;;;;;17.77;67.48;100348.75;687723;28;1004;-77
2023/07/23 01:13:23;;;;;;;12.15;7.30;;;;;;;17.80;67.34;100351.38;685088;28;1442;-77
2023/07/23 01:13:44;;;;;;;12.85;7.30;;;;;;;17.73;67.34;100335.59;680006;29;940;-77
2023/07/23 01:14:06;;;;;;;13.30;7.22;;;;;;;17.80;67.52;100354.03;682438;29;1045;-78
2023/07/23 01:14:27;;;;;;;10.82;6.80;;;;;;;17.71;67.31;100332.09;684717;28;1163;-77
2023/07/23 01:14:47;;;;;;;9.35;6.38;;;;;;;17.73;67.19;100333.84;685766;28;1112;-78
2023/07/23 01:15:09;;;;;;;10.00;6.40;;;;;;;17.80;67.33;100354.03;685235;28;1175;-78
2023/07/23 01:15:31;;;;;;;11.85;6.30;;;;;;;17.78;67.21;100339.09;684959;28;1351;-78
2023/07/23 01:15:53;;;;;;;13.45;7.07;;;;;;;17.73;67.51;100338.25;682254;29;1221;-77
2023/07/23 01:16:13;;;;;;;11.35;6.95;;;;;;;17.77;67.30;100342.63;680778;28;1517;-78
2023/07/23 01:16:35;;;;;;;9.43;6.63;;;;;;;17.72;67.29;100337.38;685545;28;998;-78
2023/07/23 01:16:57;;;;;;;10.52;6.07;;;;;;;17.75;67.23;100333.81;685190;28;1657;-78
2023/07/23 01:17:19;;;;;;;10.88;6.20;;;;;;;17.83;67.44;100352.25;682263;29;1908;-77
2023/07/23 01:17:41;;;;;;;11.32;6.40;;;;;;;17.76;67.24;100332.94;685025;28;1162;-77
2023/07/23 01:18:03;;;;;;;11.10;6.40;;;;;;;17.74;67.28;100337.34;682942;28;1096;-77
2023/07/23 01:18:25;;;;;;;11.55;6.63;;;;;;;17.74;67.29;100338.22;682265;29;1043;-77
2023/07/23 01:18:46;;;;;;;11.68;6.60;;;;;;;17.80;67.18;100340.81;687916;28;1827;-77
2023/07/23 01:19:07;;;;;;;9.85;6.47;;;;;;;17.81;67.16;100350.50;687899;28;1041;-77
2023/07/23 01:19:28;;;;;;;9.82;6.07;;;;;;;17.73;67.33;100339.13;684933;28;1608;-77
2023/07/23 01:20:04;;;;;;;10.03;6.43;;;;;;;17.73;67.20;100336.50;682607;28;1332;-77
2023/07/23 01:20:25;;;;;;;9.50;6.80;;;;;;;17.71;67.31;100327.72;682493;28;1972;-78
2023/07/23 01:20:46;;;;;;;8.88;6.68;;;;;;;17.74;67.21;100338.22;685439;28;788;-78
2023/07/23 01:21:07;;;;;;;9.25;6.70;;;;;;;17.75;67.41;100334.69;685119;28;1361;-78
2023/07/23 01:21:28;;;;;;;8.90;6.20;;;;;;;17.71;67.25;100333.00;684956;28;1166;-77
2023/07/23 01:21:53;;;;;;;9.50;6.20;;;;;;;17.73;67.32;100336.50;685155;28;1296;-77
2023/07/23 01:22:14;;;;;;;9.20;6.40;;;;;;;17.72;67.04;100334.75;681911;29;1162;-77
2023/07/23 01:22:36;;;;;;;11.70;6.75;;;;;;;17.69;67.05;100318.91;685020;28;1342;-77
2023/07/23 01:22:57;;;;;;;12.50;7.00;;;;;;;17.74;67.16;100327.69;685163;28;1303;-78
2023/07/23 01:23:17;;;;;;;13.00;7.10;;;;;;;17.72;67.12;100329.47;682494;28;1078;-77
2023/07/23 01:23:38;;;;;;;10.83;6.80;;;;;;;17.72;66.99;100323.31;677034;29;986;-78
2023/07/23 01:23:59;;;;;;;10.88;6.50;;;;;;;17.72;66.97;100324.19;681922;28;1295;-77
2023/07/23 01:24:19;;;;;;;13.40;6.45;;;;;;;17.72;66.89;100323.31;684961;28;1285;-77
2023/07/23 01:24:40;;;;;;;13.03;6.67;;;;;;;17.79;67.00;100332.91;677091;28;1289;-78
2023/07/23 01:25:03;;;;;;;12.93;6.97;;;;;;;17.74;67.02;100324.16;684925;28;1270;-76
2023/07/23 01:25:24;;;;;;;10.45;6.85;;;;;;;17.73;66.92;100323.28;687476;28;973;-77
2023/07/23 01:25:44;;;;;;;9.40;6.15;;;;;;;17.71;67.26;100322.44;679918;28;1303;-77
2023/07/23 01:26:07;;;;;;;10.83;6.13;;;;;;;17.72;66.70;100311.00;682296;28;1176;-77
2023/07/23 01:26:27;;;;;;;10.43;6.07;;;;;;;17.78;66.93;100318.81;684801;28;1254;-77
2023/07/23 01:26:48;;;;;;;11.85;6.30;;;;;;;17.74;66.66;100319.75;682360;28;1079;-77
2023/07/23 01:27:09;;;;;;;11.63;6.40;;;;;;;17.80;66.79;100322.34;682266;28;1126;-77
2023/07/23 01:27:30;;;;;;;12.55;6.50;;;;;;;17.83;66.74;100321.47;687452;28;1343;-78
2023/07/23 01:27:51;;;;;;;12.00;6.57;;;;;;;17.79;66.70;100311.81;684931;28;1137;-77
2023/07/23 01:28:11;;;;;;;11.98;6.75;;;;;;;17.77;66.84;100309.16;685021;28;1145;-78
2023/07/23 01:28:33;;;;;;;10.85;6.60;;;;;;;17.81;66.71;100316.19;684344;28;1391;-77
2023/07/23 01:28:53;;;;;;;11.35;6.38;;;;;;;17.79;66.80;100310.06;679887;29;960;-77
2023/07/23 01:29:14;;;;;;;11.57;6.23;;;;;;;17.83;66.96;100320.56;682483;29;970;-77
2023/07/23 01:29:34;;;;;;;11.25;6.47;;;;;;;17.78;66.83;100303.00;682843;28;1046;-77
2023/07/23 01:29:55;;;;;;;9.23;6.30;;;;;;;17.79;66.60;100310.06;684612;28;1165;-77
2023/07/23 01:30:16;;;;;;;8.80;5.73;;;;;;;17.79;66.86;100301.25;683072;28;1121;-77
2023/07/23 01:30:36;;;;;;;12.60;6.20;;;;;;;17.81;66.93;100312.66;687872;28;1154;-77
2023/07/23 01:30:57;;;;;;;13.48;6.20;;;;;;;17.77;66.74;100308.31;685118;28;978;-77
2023/07/23 01:31:17;;;;;;;13.87;6.80;;;;;;;17.79;66.73;100312.69;687792;28;1204;-77
2023/07/23 01:31:38;;;;;;;12.30;6.70;;;;;;;17.79;66.80;100317.06;682292;28;1011;-77
2023/07/23 01:31:59;;;;;;;12.10;7.07;;;;;;;17.73;66.81;100303.94;681937;29;1416;-77
2023/07/23 01:32:19;;;;;;;12.93;6.87;;;;;;;17.74;66.87;100309.22;682229;28;1073;-77
2023/07/23 01:32:41;;;;;;;12.52;6.88;;;;;;;17.68;66.87;100301.34;679816;29;1053;-77
2023/07/23 01:33:04;;;;;;;11.40;6.40;;;;;;;17.68;66.80;100296.94;682486;28;856;-77
2023/07/23 01:33:25;;;;;;;9.68;6.10;;;;;;;17.75;66.88;100313.59;684955;28;1002;-77
2023/07/23 01:33:47;;;;;;;8.63;5.90;;;;;;;17.74;67.01;100310.97;685169;28;1341;-77
2023/07/23 01:34:10;;;;;;;8.80;6.05;;;;;;;17.70;67.11;100304.84;685015;28;1944;-77
2023/07/23 01:34:31;;;;;;;9.80;6.20;;;;;;;17.71;66.81;100301.34;687731;28;1041;-77
2023/07/23 01:34:52;;;;;;;9.30;6.05;;;;;;;17.69;67.26;100297.81;682571;28;1269;-77
2023/07/23 01:35:15;;;;;;;11.98;6.10;;;;;;;17.77;67.17;100310.94;679727;29;1088;-77
2023/07/23 01:35:36;;;;;;;11.60;6.45;;;;;;;17.76;66.99;100309.19;687093;28;1919;-77
2023/07/23 01:35:58;;;;;;;8.70;6.30;;;;;;;17.73;67.02;100303.94;687634;28;1136;-77
2023/07/23 01:36:19;;;;;;;8.98;6.45;;;;;;;17.73;67.05;100301.28;684939;28;1312;-76
2023/07/23 01:36:40;;;;;;;8.98;6.40;;;;;;;17.70;67.02;100296.91;682303;28;1266;-77
2023/07/23 01:37:01;;;;;;;9.60;6.40;;;;;;;17.72;66.80;100303.06;687864;28;1349;-77
2023/07/23 01:37:23;;;;;;;9.70;6.30;;;;;;;17.75;67.05;100305.69;686661;28;1915;-76
2023/07/23 01:37:48;;;;;;;9.57;6.25;;;;;;;17.70;66.94;100298.69;682598;29;818;-77
2023/07/23 01:38:09;;;;;;;8.40;6.00;;;;;;;17.67;66.96;100294.31;680776;29;1107;-76
2023/07/23 01:38:30;;;;;;;9.15;5.80;;;;;;;17.66;66.87;100292.56;685172;28;1002;-77
2023/07/23 01:38:51;;;;;;;9.55;6.00;;;;;;;17.62;67.00;100291.72;685281;28;1120;-77
2023/07/23 01:39:12;;;;;;;10.07;5.85;;;;;;;17.63;66.99;100292.56;681892;29;1045;-77
2023/07/23 01:39:33;;;;;;;10.52;6.00;;;;;;;17.65;66.81;100296.09;677203;29;953;-77
2023/07/23 01:39:54;;;;;;;10.27;5.88;;;;;;;17.68;66.86;100301.34;682474;28;1297;-77
2023/07/23 01:40:15;;;;;;;9.13;5.97;;;;;;;17.65;66.60;100288.19;682487;29;1155;-77
2023/07/23 01:40:36;;;;;;;9.00;5.70;;;;;;;17.71;66.88;100303.97;682334;28;1222;-77
2023/07/23 01:40:57;;;;;;;7.88;5.53;;;;;;;17.73;66.63;100302.19;679783;29;1289;-77